Time,TemperatureF,DewpointF,PressureIn,WindDirection,WindDirectionDegrees,WindSpeedMPH,WindSpeedGustMPH,Humidity,HourlyPrecipIn,Conditions,Clouds,dailyrainin,SoftwareType,DateUTC
2013-01-22 00:01:00,10.1,7.5,30.01,SW,233,0.0,8.0,89,0.00,,,0.00,Wunderground v.1.15,2013-01-22 05:01:00,
2013-01-22 00:03:00,10.1,7.5,30.02,SW,224,0.0,8.0,89,0.00,,,0.00,Wunderground v.1.15,2013-01-22 05:03:00,
2013-01-22 00:04:00,10.1,7.5,30.02,SSW,198,0.0,8.0,89,0.00,,,0.00,Wunderground v.1.15,2013-01-22 05:04:00,
2013-01-22 00:07:00,10.0,7.4,30.01,South,181,0.0,8.0,89,0.00,,,0.00,Wunderground v.1.15,2013-01-22 05:07:00,
2013-01-22 00:13:00,9.9,7.3,30.02,WSW,249,0.0,8.0,89,0.00,,,0.00,Wunderground v.1.15,2013-01-22 05:13:00,
2013-01-22 00:18:00,9.8,7.0,30.02,SW,215,0.0,8.0,88,0.00,,,0.00,Wunderground v.1.15,2013-01-22 05:18:00,
2013-01-22 00:23:00,9.7,6.9,30.02,SW,233,0.0,8.0,88,0.00,,,0.00,Wunderground v.1.15,2013-01-22 05:23:00,
2013-01-22 00:28:00,9.6,6.8,30.02,SE,125,0.0,8.0,88,0.00,,,0.00,Wunderground v.1.15,2013-01-22 05:28:00,
2013-01-22 00:33:00,9.5,6.9,30.02,SW,235,0.0,8.0,89,0.00,,,0.00,Wunderground v.1.15,2013-01-22 05:33:00,
2013-01-22 00:39:00,9.4,6.8,30.01,WSW,250,0.0,8.0,89,0.00,,,0.00,Wunderground v.1.15,2013-01-22 05:39:00,
2013-01-22 00:44:00,9.4,6.8,30.02,West,276,0.0,8.0,89,0.00,,,0.00,Wunderground v.1.15,2013-01-22 05:44:00,
2013-01-22 00:49:00,9.3,6.5,30.02,WSW,245,0.0,8.0,88,0.00,,,0.00,Wunderground v.1.15,2013-01-22 05:49:00,
2013-01-22 00:54:00,9.2,6.4,30.02,SSW,213,0.0,8.0,88,0.00,,,0.00,Wunderground v.1.15,2013-01-22 05:54:00,
2013-01-22 01:00:00,8.9,5.8,30.02,West,266,0.0,8.0,87,0.00,,,0.00,Wunderground v.1.15,2013-01-22 06:00:00,
2013-01-22 01:05:00,8.7,5.4,30.02,NW,314,1.0,8.0,86,0.00,,,0.00,Wunderground v.1.15,2013-01-22 06:05:00,
2013-01-22 01:10:00,8.5,5.2,30.02,SW,236,1.0,8.0,86,0.00,,,0.00,Wunderground v.1.15,2013-01-22 06:10:00,
2013-01-22 01:16:00,8.4,4.8,30.03,South,175,2.0,8.0,85,0.00,,,0.00,Wunderground v.1.15,2013-01-22 06:16:00,
2013-01-22 01:21:00,8.2,4.6,30.02,WSW,242,2.0,8.0,85,0.00,,,0.00,Wunderground v.1.15,2013-01-22 06:21:00,
2013-01-22 01:26:00,8.0,3.9,30.02,ESE,107,2.0,8.0,83,0.00,,,0.00,Wunderground v.1.15,2013-01-22 06:26:00,
2013-01-22 01:31:00,7.8,3.4,30.03,SW,221,1.0,8.0,82,0.00,,,0.00,Wunderground v.1.15,2013-01-22 06:31:00,
2013-01-22 01:37:00,7.6,3.3,30.03,SW,218,1.0,8.0,82,0.00,,,0.00,Wunderground v.1.15,2013-01-22 06:37:00,
2013-01-22 01:42:00,7.6,3.3,30.03,WNW,301,1.0,8.0,82,0.00,,,0.00,Wunderground v.1.15,2013-01-22 06:42:00,
2013-01-22 01:48:00,7.4,2.8,30.03,West,270,1.0,8.0,81,0.00,,,0.00,Wunderground v.1.15,2013-01-22 06:48:00,
2013-01-22 01:53:00,7.4,2.8,30.04,West,274,0.0,8.0,81,0.00,,,0.00,Wunderground v.1.15,2013-01-22 06:53:00,
2013-01-22 01:58:00,7.5,2.3,30.04,WSW,248,0.0,8.0,79,0.00,,,0.00,Wunderground v.1.15,2013-01-22 06:58:00,
2013-01-22 02:03:00,7.5,2.3,30.04,SW,229,1.0,8.0,79,0.00,,,0.00,Wunderground v.1.15,2013-01-22 07:03:00,
2013-01-22 02:09:00,7.6,2.7,30.05,West,269,1.0,8.0,80,0.00,,,0.00,Wunderground v.1.15,2013-01-22 07:09:00,
2013-01-22 02:14:00,7.6,2.7,30.05,West,281,1.0,8.0,80,0.00,,,0.00,Wunderground v.1.15,2013-01-22 07:14:00,
2013-01-22 02:19:00,7.6,2.7,30.05,SW,222,1.0,8.0,80,0.00,,,0.00,Wunderground v.1.15,2013-01-22 07:19:00,
2013-01-22 02:24:00,7.6,3.3,30.05,WSW,243,1.0,8.0,82,0.00,,,0.00,Wunderground v.1.15,2013-01-22 07:24:00,
2013-01-22 02:30:00,7.4,3.8,30.06,West,281,1.0,1.0,85,0.00,,,0.00,Wunderground v.1.15,2013-01-22 07:30:00,
2013-01-22 02:36:00,7.4,3.8,30.06,WNW,288,0.0,8.0,85,0.00,,,0.00,Wunderground v.1.15,2013-01-22 07:36:00,
2013-01-22 02:41:00,7.4,3.8,30.06,WSW,257,1.0,8.0,85,0.00,,,0.00,Wunderground v.1.15,2013-01-22 07:41:00,
2013-01-22 02:47:00,7.3,4.0,30.05,WSW,239,1.0,8.0,86,0.00,,,0.00,Wunderground v.1.15,2013-01-22 07:47:00,
2013-01-22 02:52:00,7.3,3.7,30.06,WSW,246,0.0,8.0,85,0.00,,,0.00,Wunderground v.1.15,2013-01-22 07:52:00,
2013-01-22 02:57:00,7.3,4.0,30.06,WNW,284,1.0,8.0,86,0.00,,,0.00,Wunderground v.1.15,2013-01-22 07:57:00,
2013-01-22 03:02:00,7.2,3.9,30.06,SE,128,0.0,8.0,86,0.00,,,0.00,Wunderground v.1.15,2013-01-22 08:02:00,
2013-01-22 03:08:00,7.2,3.4,30.06,WSW,256,1.0,8.0,84,0.00,,,0.00,Wunderground v.1.15,2013-01-22 08:08:00,
2013-01-22 03:13:00,7.2,3.4,30.06,West,267,1.0,8.0,84,0.00,,,0.00,Wunderground v.1.15,2013-01-22 08:13:00,
2013-01-22 03:18:00,7.2,2.9,30.06,WSW,240,1.0,8.0,82,0.00,,,0.00,Wunderground v.1.15,2013-01-22 08:18:00,
2013-01-22 03:24:00,7.3,2.2,30.07,WSW,240,1.0,8.0,79,0.00,,,0.00,Wunderground v.1.15,2013-01-22 08:24:00,
2013-01-22 03:29:00,7.3,1.3,30.06,West,278,2.0,8.0,76,0.00,,,0.00,Wunderground v.1.15,2013-01-22 08:29:00,
2013-01-22 03:35:00,7.3,1.0,30.06,WSW,255,3.0,8.0,75,0.00,,,0.00,Wunderground v.1.15,2013-01-22 08:35:00,
2013-01-22 03:40:00,7.3,0.5,30.07,West,281,3.0,8.0,73,0.00,,,0.00,Wunderground v.1.15,2013-01-22 08:40:00,
2013-01-22 03:45:00,7.3,0.5,30.07,WSW,250,2.0,8.0,73,0.00,,,0.00,Wunderground v.1.15,2013-01-22 08:45:00,
2013-01-22 03:50:00,7.3,-0.1,30.07,WSW,239,2.0,8.0,71,0.00,,,0.00,Wunderground v.1.15,2013-01-22 08:50:00,
2013-01-22 03:56:00,7.3,0.2,30.06,WNW,282,2.0,8.0,72,0.00,,,0.00,Wunderground v.1.15,2013-01-22 08:56:00,
2013-01-22 04:02:00,7.2,0.7,30.07,SW,236,2.0,8.0,74,0.00,,,0.00,Wunderground v.1.15,2013-01-22 09:02:00,
2013-01-22 04:07:00,7.2,0.1,30.07,West,259,2.0,8.0,72,0.00,,,0.00,Wunderground v.1.15,2013-01-22 09:07:00,
2013-01-22 04:12:00,7.2,0.4,30.07,NNW,333,2.0,8.0,73,0.00,,,0.00,Wunderground v.1.15,2013-01-22 09:12:00,
2013-01-22 04:18:00,7.2,0.4,30.07,ESE,108,2.0,8.0,73,0.00,,,0.00,Wunderground v.1.15,2013-01-22 09:18:00,
2013-01-22 04:23:00,7.2,0.7,30.07,West,264,2.0,8.0,74,0.00,,,0.00,Wunderground v.1.15,2013-01-22 09:23:00,
2013-01-22 04:28:00,7.2,0.4,30.07,WSW,253,2.0,8.0,73,0.00,,,0.00,Wunderground v.1.15,2013-01-22 09:28:00,
2013-01-22 04:34:00,7.2,0.4,30.07,WSW,253,3.0,8.0,73,0.00,,,0.00,Wunderground v.1.15,2013-01-22 09:34:00,
2013-01-22 04:39:00,7.3,0.7,30.07,WNW,291,3.0,8.0,74,0.00,,,0.00,Wunderground v.1.15,2013-01-22 09:39:00,
2013-01-22 04:44:00,7.2,1.2,30.07,West,269,2.0,8.0,76,0.00,,,0.00,Wunderground v.1.15,2013-01-22 09:44:00,
2013-01-22 04:50:00,7.1,1.4,30.07,WSW,243,2.0,8.0,77,0.00,,,0.00,Wunderground v.1.15,2013-01-22 09:50:00,
2013-01-22 04:55:00,7.0,1.9,30.08,SSW,212,2.0,8.0,79,0.00,,,0.00,Wunderground v.1.15,2013-01-22 09:55:00,
2013-01-22 05:00:00,6.9,2.3,30.08,West,280,1.0,8.0,81,0.00,,,0.00,Wunderground v.1.15,2013-01-22 10:00:00,
2013-01-22 05:05:00,7.0,1.9,30.08,WSW,246,1.0,8.0,79,0.00,,,0.00,Wunderground v.1.15,2013-01-22 10:05:00,
2013-01-22 05:10:00,7.0,1.9,30.08,West,271,1.0,1.0,79,0.00,,,0.00,Wunderground v.1.15,2013-01-22 10:10:00,
2013-01-22 05:15:00,7.1,1.4,30.08,SW,229,2.0,8.0,77,0.00,,,0.00,Wunderground v.1.15,2013-01-22 10:15:00,
2013-01-22 05:21:00,7.2,1.2,30.08,WSW,257,3.0,8.0,76,0.00,,,0.00,Wunderground v.1.15,2013-01-22 10:21:00,
2013-01-22 05:26:00,7.2,0.9,30.08,WSW,240,3.0,8.0,75,0.00,,,0.00,Wunderground v.1.15,2013-01-22 10:26:00,
2013-01-22 05:31:00,7.1,1.1,30.08,WNW,291,3.0,4.0,76,0.00,,,0.00,Wunderground v.1.15,2013-01-22 10:31:00,
2013-01-22 05:37:00,7.2,0.9,30.09,WSW,243,3.0,8.0,75,0.00,,,0.00,Wunderground v.1.15,2013-01-22 10:37:00,
2013-01-22 05:42:00,7.1,1.1,30.09,WNW,287,2.0,8.0,76,0.00,,,0.00,Wunderground v.1.15,2013-01-22 10:42:00,
2013-01-22 05:48:00,7.0,0.7,30.09,WSW,254,3.0,8.0,75,0.00,,,0.00,Wunderground v.1.15,2013-01-22 10:48:00,
2013-01-22 05:53:00,7.0,1.0,30.09,WSW,249,3.0,3.0,76,0.00,,,0.00,Wunderground v.1.15,2013-01-22 10:53:00,
2013-01-22 05:58:00,6.9,1.2,30.09,WSW,243,2.0,4.0,77,0.00,,,0.00,Wunderground v.1.15,2013-01-22 10:58:00,
2013-01-22 06:04:00,6.8,1.1,30.10,WSW,245,3.0,3.0,77,0.00,,,0.00,Wunderground v.1.15,2013-01-22 11:04:00,
2013-01-22 06:09:00,6.8,1.1,30.10,SW,226,3.0,5.0,77,0.00,,,0.00,Wunderground v.1.15,2013-01-22 11:09:00,
2013-01-22 06:15:00,6.7,0.5,30.10,SW,231,3.0,10.0,75,0.00,,,0.00,Wunderground v.1.15,2013-01-22 11:15:00,
2013-01-22 06:20:00,6.5,1.4,30.11,WSW,253,4.0,4.0,79,0.00,,,0.00,Wunderground v.1.15,2013-01-22 11:20:00,
2013-01-22 06:26:00,6.2,1.1,30.11,West,280,3.0,6.0,79,0.00,,,0.00,Wunderground v.1.15,2013-01-22 11:26:00,
2013-01-22 06:32:00,6.0,1.4,30.11,SSE,161,3.0,11.0,81,0.00,,,0.00,Wunderground v.1.15,2013-01-22 11:32:00,
2013-01-22 06:37:00,5.8,2.0,30.11,WSW,240,3.0,11.0,84,0.00,,,0.00,Wunderground v.1.15,2013-01-22 11:37:00,
2013-01-22 06:42:00,5.7,2.2,30.12,SW,214,2.0,11.0,85,0.00,,,0.00,Wunderground v.1.15,2013-01-22 11:42:00,
2013-01-22 06:48:00,5.7,1.9,30.12,SSW,211,2.0,11.0,84,0.00,,,0.00,Wunderground v.1.15,2013-01-22 11:48:00,
2013-01-22 06:54:00,5.7,1.9,30.12,ENE,59,2.0,11.0,84,0.00,,,0.00,Wunderground v.1.15,2013-01-22 11:54:00,
2013-01-22 06:59:00,5.7,1.9,30.12,WSW,245,1.0,11.0,84,0.00,,,0.00,Wunderground v.1.15,2013-01-22 11:59:00,
2013-01-22 07:05:00,5.6,1.8,30.13,NW,323,2.0,11.0,84,0.00,,,0.00,Wunderground v.1.15,2013-01-22 12:05:00,
2013-01-22 07:11:00,5.5,2.2,30.13,West,270,2.0,11.0,86,0.00,,,0.00,Wunderground v.1.15,2013-01-22 12:11:00,
2013-01-22 07:16:00,5.4,2.1,30.12,SSW,204,2.0,11.0,86,0.00,,,0.00,Wunderground v.1.15,2013-01-22 12:16:00,
2013-01-22 07:21:00,5.3,2.3,30.13,West,281,2.0,11.0,87,0.00,,,0.00,Wunderground v.1.15,2013-01-22 12:21:00,
2013-01-22 07:27:00,5.3,2.3,30.13,SW,227,1.0,11.0,87,0.00,,,0.00,Wunderground v.1.15,2013-01-22 12:27:00,
2013-01-22 07:32:00,5.3,2.3,30.13,South,184,1.0,11.0,87,0.00,,,0.00,Wunderground v.1.15,2013-01-22 12:32:00,
2013-01-22 07:37:00,5.3,2.3,30.14,West,271,1.0,11.0,87,0.00,,,0.00,Wunderground v.1.15,2013-01-22 12:37:00,
2013-01-22 07:43:00,5.2,2.2,30.14,WNW,293,2.0,11.0,87,0.00,,,0.00,Wunderground v.1.15,2013-01-22 12:43:00,
2013-01-22 07:49:00,5.1,1.8,30.13,West,276,2.0,11.0,86,0.00,,,0.00,Wunderground v.1.15,2013-01-22 12:49:00,
2013-01-22 07:55:00,5.1,1.8,30.14,West,274,2.0,11.0,86,0.00,,,0.00,Wunderground v.1.15,2013-01-22 12:55:00,
2013-01-22 08:00:00,5.1,1.8,30.14,SW,233,2.0,11.0,86,0.00,,,0.00,Wunderground v.1.15,2013-01-22 13:00:00,
2013-01-22 08:05:00,5.1,1.8,30.14,WSW,239,2.0,11.0,86,0.00,,,0.00,Wunderground v.1.15,2013-01-22 13:05:00,
2013-01-22 08:11:00,5.1,2.1,30.15,WSW,248,1.0,3.0,87,0.00,,,0.00,Wunderground v.1.15,2013-01-22 13:11:00,
2013-01-22 08:16:00,5.0,2.0,30.15,SW,224,1.0,11.0,87,0.00,,,0.00,Wunderground v.1.15,2013-01-22 13:16:00,
2013-01-22 08:22:00,5.1,2.1,30.15,WSW,238,1.0,11.0,87,0.00,,,0.00,Wunderground v.1.15,2013-01-22 13:22:00,
2013-01-22 08:27:00,5.2,2.2,30.15,West,279,0.0,11.0,87,0.00,,,0.00,Wunderground v.1.15,2013-01-22 13:27:00,
2013-01-22 08:33:00,5.2,2.4,30.16,West,278,0.0,11.0,88,0.00,,,0.00,Wunderground v.1.15,2013-01-22 13:33:00,
2013-01-22 08:38:00,5.1,2.1,30.16,WSW,242,1.0,11.0,87,0.00,,,0.00,Wunderground v.1.15,2013-01-22 13:38:00,
2013-01-22 08:43:00,5.0,2.0,30.16,SW,236,2.0,11.0,87,0.00,,,0.00,Wunderground v.1.15,2013-01-22 13:43:00,
2013-01-22 08:48:00,5.0,2.0,30.16,West,271,2.0,11.0,87,0.00,,,0.00,Wunderground v.1.15,2013-01-22 13:48:00,
2013-01-22 08:53:00,4.9,1.9,30.16,WSW,256,2.0,11.0,87,0.00,,,0.00,Wunderground v.1.15,2013-01-22 13:53:00,
2013-01-22 08:59:00,4.9,1.9,30.17,East,98,2.0,11.0,87,0.00,,,0.00,Wunderground v.1.15,2013-01-22 13:59:00,
2013-01-22 09:05:00,5.0,2.2,30.16,SW,220,1.0,11.0,88,0.00,,,0.00,Wunderground v.1.15,2013-01-22 14:05:00,
2013-01-22 09:10:00,5.0,2.2,30.17,WSW,252,1.0,11.0,88,0.00,,,0.00,Wunderground v.1.15,2013-01-22 14:10:00,
2013-01-22 09:15:00,5.0,2.0,30.17,WSW,245,2.0,11.0,87,0.00,,,0.00,Wunderground v.1.15,2013-01-22 14:15:00,
2013-01-22 09:21:00,5.0,2.0,30.17,SW,226,2.0,11.0,87,0.00,,,0.00,Wunderground v.1.15,2013-01-22 14:21:00,
2013-01-22 09:26:00,5.0,2.0,30.17,East,87,2.0,11.0,87,0.00,,,0.00,Wunderground v.1.15,2013-01-22 14:26:00,
2013-01-22 09:31:00,5.0,2.0,30.18,SW,217,2.0,11.0,87,0.00,,,0.00,Wunderground v.1.15,2013-01-22 14:31:00,
2013-01-22 09:36:00,5.0,2.0,30.18,SW,222,1.0,11.0,87,0.00,,,0.00,Wunderground v.1.15,2013-01-22 14:36:00,
2013-01-22 09:42:00,5.0,2.2,30.18,SSW,201,1.0,11.0,88,0.00,,,0.00,Wunderground v.1.15,2013-01-22 14:42:00,
2013-01-22 09:47:00,5.0,2.0,30.18,WNW,295,2.0,11.0,87,0.00,,,0.00,Wunderground v.1.15,2013-01-22 14:47:00,
2013-01-22 09:53:00,5.1,2.3,30.19,SW,225,2.0,11.0,88,0.00,,,0.00,Wunderground v.1.15,2013-01-22 14:53:00,
2013-01-22 09:58:00,4.7,1.4,30.19,SW,233,3.0,11.0,86,0.00,,,0.00,Wunderground v.1.15,2013-01-22 14:58:00,
2013-01-22 10:03:00,4.6,1.6,30.19,WNW,284,3.0,11.0,87,0.00,,,0.00,Wunderground v.1.15,2013-01-22 15:03:00,
2013-01-22 10:09:00,4.6,1.6,30.20,WNW,283,3.0,11.0,87,0.00,,,0.00,Wunderground v.1.15,2013-01-22 15:09:00,
2013-01-22 10:14:00,4.7,1.9,30.20,West,269,2.0,11.0,88,0.00,,,0.00,Wunderground v.1.15,2013-01-22 15:14:00,
2013-01-22 10:19:00,4.8,1.8,30.20,South,172,2.0,11.0,87,0.00,,,0.00,Wunderground v.1.15,2013-01-22 15:19:00,
2013-01-22 10:25:00,4.8,1.8,30.21,South,173,3.0,11.0,87,0.00,,,0.00,Wunderground v.1.15,2013-01-22 15:25:00,
2013-01-22 10:30:00,4.8,1.8,30.21,SW,228,2.0,2.0,87,0.00,,,0.00,Wunderground v.1.15,2013-01-22 15:30:00,
2013-01-22 10:35:00,5.1,2.1,30.21,North,352,1.0,11.0,87,0.00,,,0.00,Wunderground v.1.15,2013-01-22 15:35:00,
2013-01-22 10:41:00,4.7,1.4,30.21,North,6,2.0,11.0,86,0.00,,,0.00,Wunderground v.1.15,2013-01-22 15:41:00,
2013-01-22 10:47:00,4.7,1.4,30.21,WSW,243,3.0,11.0,86,0.00,,,0.00,Wunderground v.1.15,2013-01-22 15:47:00,
2013-01-22 10:52:00,4.7,1.7,30.22,WSW,255,2.0,11.0,87,0.00,,,0.00,Wunderground v.1.15,2013-01-22 15:52:00,
2013-01-22 10:58:00,4.7,1.7,30.22,SW,235,2.0,11.0,87,0.00,,,0.00,Wunderground v.1.15,2013-01-22 15:58:00,
2013-01-22 11:03:00,4.7,1.7,30.22,SW,235,2.0,11.0,87,0.00,,,0.00,Wunderground v.1.15,2013-01-22 16:03:00,
2013-01-22 11:08:00,4.7,1.7,30.22,WNW,295,2.0,11.0,87,0.00,,,0.00,Wunderground v.1.15,2013-01-22 16:08:00,
2013-01-22 11:13:00,4.8,1.8,30.22,WSW,249,2.0,11.0,87,0.00,,,0.00,Wunderground v.1.15,2013-01-22 16:13:00,
2013-01-22 11:18:00,4.8,1.8,30.22,West,269,1.0,11.0,87,0.00,,,0.00,Wunderground v.1.15,2013-01-22 16:18:00,
2013-01-22 11:23:00,4.6,1.3,30.22,WSW,242,2.0,11.0,86,0.00,,,0.00,Wunderground v.1.15,2013-01-22 16:23:00,
2013-01-22 11:29:00,4.6,1.6,30.22,WSW,246,2.0,11.0,87,0.00,,,0.00,Wunderground v.1.15,2013-01-22 16:29:00,
2013-01-22 11:34:00,4.5,1.5,30.22,SW,228,2.0,11.0,87,0.00,,,0.00,Wunderground v.1.15,2013-01-22 16:34:00,
2013-01-22 11:40:00,4.7,1.7,30.22,NW,311,1.0,11.0,87,0.00,,,0.00,Wunderground v.1.15,2013-01-22 16:40:00,
2013-01-22 11:45:00,4.7,1.7,30.22,WSW,256,1.0,11.0,87,0.00,,,0.00,Wunderground v.1.15,2013-01-22 16:45:00,
2013-01-22 11:51:00,4.8,1.8,30.21,WNW,300,1.0,11.0,87,0.00,,,0.00,Wunderground v.1.15,2013-01-22 16:51:00,
2013-01-22 11:56:00,4.8,1.8,30.22,West,273,1.0,11.0,87,0.00,,,0.00,Wunderground v.1.15,2013-01-22 16:56:00,
2013-01-22 12:02:00,4.6,1.3,30.21,West,271,1.0,11.0,86,0.00,,,0.00,Wunderground v.1.15,2013-01-22 17:02:00,
2013-01-22 12:07:00,4.7,1.7,30.21,WSW,255,1.0,11.0,87,0.00,,,0.00,Wunderground v.1.15,2013-01-22 17:07:00,
2013-01-22 12:12:00,4.8,1.8,30.21,West,273,1.0,11.0,87,0.00,,,0.00,Wunderground v.1.15,2013-01-22 17:12:00,
2013-01-22 12:18:00,5.0,2.0,30.21,West,263,0.0,11.0,87,0.00,,,0.00,Wunderground v.1.15,2013-01-22 17:18:00,
2013-01-22 12:23:00,5.2,2.2,30.21,West,274,0.0,11.0,87,0.00,,,0.00,Wunderground v.1.15,2013-01-22 17:23:00,
2013-01-22 12:29:00,5.2,2.2,30.21,WSW,245,0.0,11.0,87,0.00,,,0.00,Wunderground v.1.15,2013-01-22 17:29:00,
2013-01-22 12:34:00,5.5,2.5,30.21,SSW,211,0.0,11.0,87,0.00,,,0.00,Wunderground v.1.15,2013-01-22 17:34:00,
2013-01-22 12:39:00,5.6,2.6,30.21,WSW,242,0.0,11.0,87,0.00,,,0.00,Wunderground v.1.15,2013-01-22 17:39:00,
2013-01-22 12:44:00,5.6,2.3,30.21,WSW,243,1.0,11.0,86,0.00,,,0.00,Wunderground v.1.15,2013-01-22 17:44:00,
2013-01-22 12:49:00,5.8,2.5,30.20,West,281,1.0,11.0,86,0.00,,,0.00,Wunderground v.1.15,2013-01-22 17:49:00,
2013-01-22 13:02:00,5.9,2.6,30.20,WSW,238,1.0,11.0,86,0.00,,,0.00,Wunderground v.1.15,2013-01-22 18:02:00,
2013-01-22 13:07:00,6.1,2.8,30.20,SSW,208,2.0,11.0,86,0.00,,,0.00,Wunderground v.1.15,2013-01-22 18:07:00,
2013-01-22 13:13:00,6.4,3.4,30.20,West,269,1.0,11.0,87,0.00,,,0.00,Wunderground v.1.15,2013-01-22 18:13:00,
2013-01-22 13:18:00,6.1,2.6,30.20,South,176,1.0,11.0,85,0.00,,,0.00,Wunderground v.1.15,2013-01-22 18:18:00,
2013-01-22 13:24:00,6.1,2.8,30.20,WSW,252,2.0,11.0,86,0.00,,,0.00,Wunderground v.1.15,2013-01-22 18:24:00,
2013-01-22 13:30:00,6.2,2.9,30.20,West,275,1.0,1.0,86,0.00,,,0.00,Wunderground v.1.15,2013-01-22 18:30:00,
2013-01-22 13:35:00,6.1,2.8,30.20,West,276,1.0,11.0,86,0.00,,,0.00,Wunderground v.1.15,2013-01-22 18:35:00,
2013-01-22 13:40:00,6.1,2.8,30.20,WSW,250,1.0,11.0,86,0.00,,,0.00,Wunderground v.1.15,2013-01-22 18:40:00,
2013-01-22 13:46:00,6.3,3.3,30.20,WSW,250,1.0,11.0,87,0.00,,,0.00,Wunderground v.1.15,2013-01-22 18:46:00,
2013-01-22 13:51:00,6.3,3.0,30.20,West,275,1.0,11.0,86,0.00,,,0.00,Wunderground v.1.15,2013-01-22 18:51:00,
2013-01-22 13:57:00,6.3,3.3,30.20,South,191,1.0,11.0,87,0.00,,,0.00,Wunderground v.1.15,2013-01-22 18:57:00,
2013-01-22 14:02:00,6.7,3.7,30.20,WSW,238,0.0,11.0,87,0.00,,,0.00,Wunderground v.1.15,2013-01-22 19:02:00,
2013-01-22 14:08:00,7.2,4.1,30.20,SW,231,0.0,11.0,87,0.00,,,0.00,Wunderground v.1.15,2013-01-22 19:08:00,
2013-01-22 14:14:00,7.0,3.7,30.20,SW,226,1.0,11.0,86,0.00,,,0.00,Wunderground v.1.15,2013-01-22 19:14:00,
2013-01-22 14:19:00,6.9,3.6,30.21,SSW,208,1.0,11.0,86,0.00,,,0.00,Wunderground v.1.15,2013-01-22 19:19:00,
2013-01-22 14:25:00,6.9,3.6,30.21,WSW,252,1.0,11.0,86,0.00,,,0.00,Wunderground v.1.15,2013-01-22 19:25:00,
2013-01-22 14:31:00,6.9,3.6,30.21,SSW,211,1.0,11.0,86,0.00,,,0.00,Wunderground v.1.15,2013-01-22 19:31:00,
2013-01-22 14:37:00,6.8,3.5,30.21,WSW,254,1.0,11.0,86,0.00,,,0.00,Wunderground v.1.15,2013-01-22 19:37:00,
2013-01-22 14:42:00,6.7,3.4,30.21,WSW,244,1.0,11.0,86,0.00,,,0.00,Wunderground v.1.15,2013-01-22 19:42:00,
2013-01-22 14:47:00,6.6,3.3,30.21,SW,226,1.0,11.0,86,0.00,,,0.00,Wunderground v.1.15,2013-01-22 19:47:00,
2013-01-22 14:53:00,6.5,3.5,30.21,WSW,250,1.0,11.0,87,0.00,,,0.00,Wunderground v.1.15,2013-01-22 19:53:00,
2013-01-22 14:59:00,6.7,3.7,30.22,West,275,0.0,11.0,87,0.00,,,0.00,Wunderground v.1.15,2013-01-22 19:59:00,
2013-01-22 15:04:00,6.7,3.7,30.22,WSW,248,0.0,11.0,87,0.00,,,0.00,Wunderground v.1.15,2013-01-22 20:04:00,
2013-01-22 15:10:00,6.8,3.8,30.22,WSW,238,0.0,11.0,87,0.00,,,0.00,Wunderground v.1.15,2013-01-22 20:10:00,
2013-01-22 15:16:00,7.1,4.0,30.22,West,271,0.0,11.0,87,0.00,,,0.00,Wunderground v.1.15,2013-01-22 20:16:00,
2013-01-22 15:21:00,6.9,3.8,30.23,WSW,242,0.0,11.0,87,0.00,,,0.00,Wunderground v.1.15,2013-01-22 20:21:00,
2013-01-22 15:26:00,6.9,3.8,30.23,SSW,207,0.0,11.0,87,0.00,,,0.00,Wunderground v.1.15,2013-01-22 20:26:00,
2013-01-22 15:32:00,7.0,3.9,30.23,West,280,0.0,11.0,87,0.00,,,0.00,Wunderground v.1.15,2013-01-22 20:32:00,
2013-01-22 15:38:00,6.7,3.7,30.23,WSW,238,0.0,11.0,87,0.00,,,0.00,Wunderground v.1.15,2013-01-22 20:38:00,
2013-01-22 15:44:00,6.5,3.5,30.24,WNW,295,0.0,11.0,87,0.00,,,0.00,Wunderground v.1.15,2013-01-22 20:44:00,
2013-01-22 15:49:00,6.6,3.6,30.24,West,263,0.0,11.0,87,0.00,,,0.00,Wunderground v.1.15,2013-01-22 20:49:00,
2013-01-22 15:54:00,6.7,3.9,30.24,WNW,303,0.0,11.0,88,0.00,,,0.00,Wunderground v.1.15,2013-01-22 20:54:00,
2013-01-22 15:59:00,6.9,4.1,30.24,WNW,295,0.0,11.0,88,0.00,,,0.00,Wunderground v.1.15,2013-01-22 20:59:00,
2013-01-22 16:05:00,6.8,3.8,30.24,SE,132,0.0,11.0,87,0.00,,,0.00,Wunderground v.1.15,2013-01-22 21:05:00,
2013-01-22 16:10:00,6.9,4.1,30.24,WSW,243,0.0,11.0,88,0.00,,,0.00,Wunderground v.1.15,2013-01-22 21:10:00,
2013-01-22 16:15:00,7.0,4.2,30.24,WSW,240,0.0,11.0,88,0.00,,,0.00,Wunderground v.1.15,2013-01-22 21:15:00,
2013-01-22 16:21:00,6.9,3.8,30.24,SW,225,0.0,11.0,87,0.00,,,0.00,Wunderground v.1.15,2013-01-22 21:21:00,
2013-01-22 16:26:00,6.9,4.1,30.24,SW,226,0.0,11.0,88,0.00,,,0.00,Wunderground v.1.15,2013-01-22 21:26:00,
2013-01-22 16:31:00,6.9,4.1,30.24,SW,233,0.0,11.0,88,0.00,,,0.00,Wunderground v.1.15,2013-01-22 21:31:00,
2013-01-22 16:37:00,6.9,4.1,30.24,SW,225,0.0,11.0,88,0.00,,,0.00,Wunderground v.1.15,2013-01-22 21:37:00,
2013-01-22 16:42:00,7.0,4.2,30.24,WSW,243,0.0,11.0,88,0.00,,,0.00,Wunderground v.1.15,2013-01-22 21:42:00,
2013-01-22 16:47:00,6.9,4.1,30.24,SSW,204,0.0,11.0,88,0.00,,,0.00,Wunderground v.1.15,2013-01-22 21:47:00,
2013-01-22 16:53:00,6.8,4.0,30.24,WSW,238,0.0,11.0,88,0.00,,,0.00,Wunderground v.1.15,2013-01-22 21:53:00,
2013-01-22 16:58:00,6.7,3.9,30.25,WSW,238,0.0,11.0,88,0.00,,,0.00,Wunderground v.1.15,2013-01-22 21:58:00,
2013-01-22 17:03:00,6.7,3.9,30.25,SW,228,0.0,11.0,88,0.00,,,0.00,Wunderground v.1.15,2013-01-22 22:03:00,
2013-01-22 17:08:00,6.6,3.8,30.25,SW,236,0.0,11.0,88,0.00,,,0.00,Wunderground v.1.15,2013-01-22 22:08:00,
2013-01-22 17:14:00,6.6,3.8,30.25,SW,235,0.0,11.0,88,0.00,,,0.00,Wunderground v.1.15,2013-01-22 22:14:00,
2013-01-22 17:19:00,6.5,3.7,30.25,WSW,242,0.0,11.0,88,0.00,,,0.00,Wunderground v.1.15,2013-01-22 22:19:00,
2013-01-22 17:25:00,6.4,3.6,30.25,West,262,0.0,11.0,88,0.00,,,0.00,Wunderground v.1.15,2013-01-22 22:25:00,
2013-01-22 17:30:00,6.4,3.6,30.25,SSW,212,0.0,11.0,88,0.00,,,0.00,Wunderground v.1.15,2013-01-22 22:30:00,
2013-01-22 17:35:00,6.3,3.5,30.25,SW,228,0.0,11.0,88,0.00,,,0.00,Wunderground v.1.15,2013-01-22 22:35:00,
2013-01-22 17:41:00,6.2,3.4,30.25,WSW,250,0.0,11.0,88,0.00,,,0.00,Wunderground v.1.15,2013-01-22 22:41:00,
2013-01-22 17:46:00,6.1,3.3,30.25,SW,221,0.0,11.0,88,0.00,,,0.00,Wunderground v.1.15,2013-01-22 22:46:00,
2013-01-22 17:51:00,6.0,3.2,30.25,WSW,248,0.0,11.0,88,0.00,,,0.00,Wunderground v.1.15,2013-01-22 22:51:00,
2013-01-22 17:57:00,5.9,3.1,30.25,SW,233,0.0,11.0,88,0.00,,,0.00,Wunderground v.1.15,2013-01-22 22:57:00,
2013-01-22 18:03:00,5.9,3.1,30.25,WSW,246,0.0,11.0,88,0.00,,,0.00,Wunderground v.1.15,2013-01-22 23:03:00,
2013-01-22 18:09:00,5.8,3.0,30.25,WSW,240,0.0,11.0,88,0.00,,,0.00,Wunderground v.1.15,2013-01-22 23:09:00,
2013-01-22 18:14:00,5.9,3.1,30.25,SW,214,0.0,11.0,88,0.00,,,0.00,Wunderground v.1.15,2013-01-22 23:14:00,
2013-01-22 18:20:00,5.8,3.0,30.26,SW,236,0.0,11.0,88,0.00,,,0.00,Wunderground v.1.15,2013-01-22 23:20:00,
2013-01-22 18:25:00,5.8,3.0,30.26,SW,214,0.0,11.0,88,0.00,,,0.00,Wunderground v.1.15,2013-01-22 23:25:00,
2013-01-22 18:30:00,5.8,3.0,30.26,SSE,165,0.0,11.0,88,0.00,,,0.00,Wunderground v.1.15,2013-01-22 23:30:00,
2013-01-22 18:35:00,5.7,2.9,30.26,ESE,117,0.0,11.0,88,0.00,,,0.00,Wunderground v.1.15,2013-01-22 23:35:00,
2013-01-22 18:42:00,5.6,2.8,30.26,SW,214,0.0,11.0,88,0.00,,,0.00,Wunderground v.1.15,2013-01-22 23:42:00,
2013-01-22 18:47:00,5.6,2.8,30.26,WSW,245,0.0,11.0,88,0.00,,,0.00,Wunderground v.1.15,2013-01-22 23:47:00,
2013-01-22 18:52:00,5.5,2.7,30.27,SE,125,0.0,11.0,88,0.00,,,0.00,Wunderground v.1.15,2013-01-22 23:52:00,
2013-01-22 18:58:00,5.5,2.7,30.27,SW,219,0.0,11.0,88,0.00,,,0.00,Wunderground v.1.15,2013-01-22 23:58:00,
2013-01-22 19:04:00,5.4,2.6,30.27,SSW,198,0.0,11.0,88,0.00,,,0.00,Wunderground v.1.15,2013-01-23 00:04:00,
2013-01-22 19:09:00,5.3,2.5,30.27,SSW,208,0.0,11.0,88,0.00,,,0.00,Wunderground v.1.15,2013-01-23 00:09:00,
2013-01-22 19:15:00,5.3,2.5,30.27,West,260,0.0,11.0,88,0.00,,,0.00,Wunderground v.1.15,2013-01-23 00:15:00,
2013-01-22 19:20:00,5.2,2.4,30.27,SW,226,0.0,11.0,88,0.00,,,0.00,Wunderground v.1.15,2013-01-23 00:20:00,
2013-01-22 19:25:00,5.2,2.4,30.27,SSW,198,0.0,11.0,88,0.00,,,0.00,Wunderground v.1.15,2013-01-23 00:25:00,
2013-01-22 19:30:00,5.1,2.3,30.26,East,89,0.0,11.0,88,0.00,,,0.00,Wunderground v.1.15,2013-01-23 00:30:00,
2013-01-22 19:36:00,5.1,2.3,30.27,SW,231,0.0,11.0,88,0.00,,,0.00,Wunderground v.1.15,2013-01-23 00:36:00,
2013-01-22 19:41:00,5.1,2.3,30.26,SW,236,0.0,11.0,88,0.00,,,0.00,Wunderground v.1.15,2013-01-23 00:41:00,
2013-01-22 19:47:00,5.1,2.3,30.26,SW,218,0.0,11.0,88,0.00,,,0.00,Wunderground v.1.15,2013-01-23 00:47:00,
2013-01-22 19:52:00,5.2,2.4,30.26,East,82,0.0,11.0,88,0.00,,,0.00,Wunderground v.1.15,2013-01-23 00:52:00,
2013-01-22 19:58:00,5.2,2.4,30.26,WSW,252,0.0,11.0,88,0.00,,,0.00,Wunderground v.1.15,2013-01-23 00:58:00,
2013-01-22 20:03:00,5.2,2.4,30.26,SW,231,0.0,11.0,88,0.00,,,0.00,Wunderground v.1.15,2013-01-23 01:03:00,
2013-01-22 20:09:00,5.2,2.4,30.26,SW,224,0.0,11.0,88,0.00,,,0.00,Wunderground v.1.15,2013-01-23 01:09:00,
2013-01-22 20:15:00,5.4,2.9,30.26,SW,222,0.0,11.0,89,0.00,,,0.00,Wunderground v.1.15,2013-01-23 01:15:00,
2013-01-22 20:20:00,5.4,2.6,30.26,West,269,0.0,11.0,88,0.00,,,0.00,Wunderground v.1.15,2013-01-23 01:20:00,
2013-01-22 20:26:00,5.5,3.0,30.26,SW,225,0.0,11.0,89,0.00,,,0.00,Wunderground v.1.15,2013-01-23 01:26:00,
2013-01-22 20:31:00,5.5,3.0,30.26,SW,228,0.0,11.0,89,0.00,,,0.00,Wunderground v.1.15,2013-01-23 01:31:00,
2013-01-22 20:37:00,5.5,3.0,30.26,SW,224,0.0,11.0,89,0.00,,,0.00,Wunderground v.1.15,2013-01-23 01:37:00,
2013-01-22 20:43:00,5.5,2.7,30.26,SW,215,0.0,11.0,88,0.00,,,0.00,Wunderground v.1.15,2013-01-23 01:43:00,
2013-01-22 20:48:00,5.5,2.7,30.26,SSW,207,0.0,11.0,88,0.00,,,0.00,Wunderground v.1.15,2013-01-23 01:48:00,
2013-01-22 20:53:00,5.5,2.7,30.26,SW,228,0.0,11.0,88,0.00,,,0.00,Wunderground v.1.15,2013-01-23 01:53:00,
2013-01-22 20:59:00,5.6,2.8,30.27,WSW,253,0.0,11.0,88,0.00,,,0.00,Wunderground v.1.15,2013-01-23 01:59:00,
2013-01-22 21:05:00,5.6,3.1,30.27,ESE,120,0.0,11.0,89,0.00,,,0.00,Wunderground v.1.15,2013-01-23 02:05:00,
2013-01-22 21:10:00,5.6,3.1,30.27,SW,229,0.0,11.0,89,0.00,,,0.00,Wunderground v.1.15,2013-01-23 02:10:00,
2013-01-22 21:15:00,5.6,2.8,30.27,SW,229,0.0,11.0,88,0.00,,,0.00,Wunderground v.1.15,2013-01-23 02:15:00,
2013-01-22 21:21:00,5.7,3.2,30.27,SW,233,0.0,11.0,89,0.00,,,0.00,Wunderground v.1.15,2013-01-23 02:21:00,
2013-01-22 21:27:00,5.7,3.2,30.27,SW,233,0.0,11.0,89,0.00,,,0.00,Wunderground v.1.15,2013-01-23 02:27:00,
2013-01-22 21:32:00,5.7,3.2,30.26,WSW,242,0.0,11.0,89,0.00,,,0.00,Wunderground v.1.15,2013-01-23 02:32:00,
2013-01-22 21:37:00,5.7,3.2,30.26,WSW,238,0.0,11.0,89,0.00,,,0.00,Wunderground v.1.15,2013-01-23 02:37:00,
2013-01-22 21:42:00,5.7,3.2,30.27,SW,221,0.0,11.0,89,0.00,,,0.00,Wunderground v.1.15,2013-01-23 02:42:00,
2013-01-22 21:48:00,5.7,3.2,30.26,SW,216,0.0,11.0,89,0.00,,,0.00,Wunderground v.1.15,2013-01-23 02:48:00,
2013-01-22 21:53:00,5.7,3.2,30.26,West,262,0.0,11.0,89,0.00,,,0.00,Wunderground v.1.15,2013-01-23 02:53:00,
2013-01-22 21:59:00,5.8,3.3,30.26,SE,125,0.0,11.0,89,0.00,,,0.00,Wunderground v.1.15,2013-01-23 02:59:00,
2013-01-22 22:04:00,5.8,3.3,30.26,WSW,255,0.0,11.0,89,0.00,,,0.00,Wunderground v.1.15,2013-01-23 03:04:00,
2013-01-22 22:09:00,5.8,3.3,30.26,SW,236,0.0,11.0,89,0.00,,,0.00,Wunderground v.1.15,2013-01-23 03:09:00,
2013-01-22 22:15:00,5.8,3.3,30.26,SW,222,0.0,11.0,89,0.00,,,0.00,Wunderground v.1.15,2013-01-23 03:15:00,
2013-01-22 22:20:00,5.8,3.3,30.26,WSW,238,0.0,11.0,89,0.00,,,0.00,Wunderground v.1.15,2013-01-23 03:20:00,
2013-01-22 22:26:00,5.8,3.3,30.26,SW,226,0.0,11.0,89,0.00,,,0.00,Wunderground v.1.15,2013-01-23 03:26:00,
2013-01-22 22:32:00,5.8,3.3,30.26,SW,233,0.0,11.0,89,0.00,,,0.00,Wunderground v.1.15,2013-01-23 03:32:00,
2013-01-22 22:37:00,5.8,3.3,30.26,SW,224,0.0,11.0,89,0.00,,,0.00,Wunderground v.1.15,2013-01-23 03:37:00,
2013-01-22 22:42:00,5.8,3.0,30.26,WSW,238,0.0,11.0,88,0.00,,,0.00,Wunderground v.1.15,2013-01-23 03:42:00,
2013-01-22 22:47:00,5.8,3.3,30.26,SW,226,0.0,11.0,89,0.00,,,0.00,Wunderground v.1.15,2013-01-23 03:47:00,
2013-01-22 22:53:00,5.7,3.2,30.26,WSW,243,0.0,11.0,89,0.00,,,0.00,Wunderground v.1.15,2013-01-23 03:53:00,
2013-01-22 22:59:00,5.8,3.3,30.26,SW,236,0.0,11.0,89,0.00,,,0.00,Wunderground v.1.15,2013-01-23 03:59:00,
2013-01-22 23:05:00,5.7,3.2,30.26,WSW,246,0.0,11.0,89,0.00,,,0.00,Wunderground v.1.15,2013-01-23 04:05:00,
2013-01-22 23:10:00,5.7,3.2,30.26,SW,227,0.0,11.0,89,0.00,,,0.00,Wunderground v.1.15,2013-01-23 04:10:00,
2013-01-22 23:15:00,5.7,3.2,30.26,SW,219,0.0,11.0,89,0.00,,,0.00,Wunderground v.1.15,2013-01-23 04:15:00,
2013-01-22 23:20:00,5.7,3.2,30.26,SW,219,0.0,11.0,89,0.00,,,0.00,Wunderground v.1.15,2013-01-23 04:20:00,
2013-01-22 23:25:00,5.7,3.2,30.26,SSW,208,0.0,11.0,89,0.00,,,0.00,Wunderground v.1.15,2013-01-23 04:25:00,
2013-01-22 23:31:00,5.7,3.2,30.26,WSW,239,0.0,11.0,89,0.00,,,0.00,Wunderground v.1.15,2013-01-23 04:31:00,
2013-01-22 23:37:00,5.7,3.2,30.25,SW,222,0.0,11.0,89,0.00,,,0.00,Wunderground v.1.15,2013-01-23 04:37:00,
2013-01-22 23:43:00,5.7,3.2,30.25,SW,222,0.0,11.0,89,0.00,,,0.00,Wunderground v.1.15,2013-01-23 04:43:00,
2013-01-22 23:48:00,5.7,3.2,30.25,SW,214,0.0,11.0,89,0.00,,,0.00,Wunderground v.1.15,2013-01-23 04:48:00,
2013-01-22 23:53:00,5.7,3.2,30.25,SW,219,0.0,11.0,89,0.00,,,0.00,Wunderground v.1.15,2013-01-23 04:53:00,
2013-01-22 23:58:00,5.7,3.2,30.25,SW,227,0.0,11.0,89,0.00,,,0.00,Wunderground v.1.15,2013-01-23 04:58:00,